sensor_id;sensor_type;location;lat;lon;timestamp;P1;durP1;ratioP1;P2;durP2;ratioP2
9328;SDS011;4703;48.748;19.142;2023-11-21T00:00:03;18.17;;;14.30;;
9328;SDS011;4703;48.748;19.142;2023-11-21T00:02:36;19.73;;;12.97;;
9328;SDS011;4703;48.748;19.142;2023-11-21T00:05:07;19.67;;;14.17;;
9328;SDS011;4703;48.748;19.142;2023-11-21T00:07:40;20.43;;;14.23;;
9328;SDS011;4703;48.748;19.142;2023-11-21T00:10:08;18.97;;;14.27;;
9328;SDS011;4703;48.748;19.142;2023-11-21T00:12:37;18.80;;;14.93;;
9328;SDS011;4703;48.748;19.142;2023-11-21T00:15:04;22.33;;;16.10;;
9328;SDS011;4703;48.748;19.142;2023-11-21T00:17:32;20.13;;;15.30;;
9328;SDS011;4703;48.748;19.142;2023-11-21T00:19:59;17.50;;;14.47;;
9328;SDS011;4703;48.748;19.142;2023-11-21T00:22:26;19.73;;;14.53;;
9328;SDS011;4703;48.748;19.142;2023-11-21T00:24:53;20.73;;;15.60;;
9328;SDS011;4703;48.748;19.142;2023-11-21T00:27:20;20.23;;;14.73;;
9328;SDS011;4703;48.748;19.142;2023-11-21T00:29:47;19.80;;;15.67;;
9328;SDS011;4703;48.748;19.142;2023-11-21T00:32:13;22.43;;;16.20;;
9328;SDS011;4703;48.748;19.142;2023-11-21T00:34:41;21.20;;;14.77;;
9328;SDS011;4703;48.748;19.142;2023-11-21T00:37:08;21.13;;;13.80;;
9328;SDS011;4703;48.748;19.142;2023-11-21T00:39:35;21.57;;;15.30;;
9328;SDS011;4703;48.748;19.142;2023-11-21T00:42:02;18.00;;;14.50;;
9328;SDS011;4703;48.748;19.142;2023-11-21T00:44:31;22.30;;;14.90;;
9328;SDS011;4703;48.748;19.142;2023-11-21T00:46:58;18.63;;;14.17;;
9328;SDS011;4703;48.748;19.142;2023-11-21T00:49:25;16.80;;;14.17;;
9328;SDS011;4703;48.748;19.142;2023-11-21T00:51:53;19.33;;;13.97;;
9328;SDS011;4703;48.748;19.142;2023-11-21T00:54:20;16.33;;;13.60;;
9328;SDS011;4703;48.748;19.142;2023-11-21T00:56:47;20.20;;;14.70;;
9328;SDS011;4703;48.748;19.142;2023-11-21T00:59:14;19.90;;;14.43;;
9328;SDS011;4703;48.748;19.142;2023-11-21T01:01:41;17.40;;;13.20;;
9328;SDS011;4703;48.748;19.142;2023-11-21T01:04:08;17.80;;;12.40;;
9328;SDS011;4703;48.748;19.142;2023-11-21T01:06:35;13.47;;;11.67;;
9328;SDS011;4703;48.748;19.142;2023-11-21T01:09:02;14.03;;;11.60;;
9328;SDS011;4703;48.748;19.142;2023-11-21T01:11:34;14.77;;;11.53;;
9328;SDS011;4703;48.748;19.142;2023-11-21T01:14:03;14.80;;;11.70;;
9328;SDS011;4703;48.748;19.142;2023-11-21T01:16:31;16.83;;;12.13;;
9328;SDS011;4703;48.748;19.142;2023-11-21T01:19:01;17.00;;;11.63;;
9328;SDS011;4703;48.748;19.142;2023-11-21T01:21:28;13.37;;;10.90;;
9328;SDS011;4703;48.748;19.142;2023-11-21T01:23:55;13.77;;;11.20;;
9328;SDS011;4703;48.748;19.142;2023-11-21T01:26:22;12.73;;;11.37;;
9328;SDS011;4703;48.748;19.142;2023-11-21T01:28:49;12.20;;;9.93;;
9328;SDS011;4703;48.748;19.142;2023-11-21T01:31:16;14.27;;;11.00;;
9328;SDS011;4703;48.748;19.142;2023-11-21T01:33:43;13.30;;;10.50;;
9328;SDS011;4703;48.748;19.142;2023-11-21T01:36:10;15.87;;;12.47;;
9328;SDS011;4703;48.748;19.142;2023-11-21T01:38:37;14.50;;;11.77;;
9328;SDS011;4703;48.748;19.142;2023-11-21T01:41:05;12.60;;;10.60;;
9328;SDS011;4703;48.748;19.142;2023-11-21T01:43:32;14.60;;;11.60;;
9328;SDS011;4703;48.748;19.142;2023-11-21T01:46:00;12.80;;;10.33;;
9328;SDS011;4703;48.748;19.142;2023-11-21T01:48:27;14.77;;;11.23;;
9328;SDS011;4703;48.748;19.142;2023-11-21T01:50:55;14.33;;;10.43;;
9328;SDS011;4703;48.748;19.142;2023-11-21T01:53:23;12.93;;;10.33;;
9328;SDS011;4703;48.748;19.142;2023-11-21T01:55:52;14.93;;;10.77;;
9328;SDS011;4703;48.748;19.142;2023-11-21T01:58:23;13.10;;;11.50;;
9328;SDS011;4703;48.748;19.142;2023-11-21T02:00:51;19.83;;;11.63;;
9328;SDS011;4703;48.748;19.142;2023-11-21T02:03:21;12.83;;;10.83;;
9328;SDS011;4703;48.748;19.142;2023-11-21T02:05:48;12.03;;;10.13;;
9328;SDS011;4703;48.748;19.142;2023-11-21T02:08:15;14.20;;;10.50;;
9328;SDS011;4703;48.748;19.142;2023-11-21T02:10:42;12.47;;;9.70;;
9328;SDS011;4703;48.748;19.142;2023-11-21T02:13:09;12.73;;;10.07;;
9328;SDS011;4703;48.748;19.142;2023-11-21T02:15:37;14.17;;;9.97;;
9328;SDS011;4703;48.748;19.142;2023-11-21T02:18:05;17.17;;;12.30;;
9328;SDS011;4703;48.748;19.142;2023-11-21T02:20:32;19.57;;;13.37;;
9328;SDS011;4703;48.748;19.142;2023-11-21T02:23:01;16.57;;;12.83;;
9328;SDS011;4703;48.748;19.142;2023-11-21T02:25:32;19.10;;;12.83;;
9328;SDS011;4703;48.748;19.142;2023-11-21T02:28:01;14.60;;;12.53;;
9328;SDS011;4703;48.748;19.142;2023-11-21T02:30:29;14.83;;;11.60;;
9328;SDS011;4703;48.748;19.142;2023-11-21T02:32:59;15.23;;;13.00;;
9328;SDS011;4703;48.748;19.142;2023-11-21T02:35:29;13.13;;;11.73;;
9328;SDS011;4703;48.748;19.142;2023-11-21T02:37:58;18.37;;;13.30;;
9328;SDS011;4703;48.748;19.142;2023-11-21T02:40:25;15.37;;;12.03;;
9328;SDS011;4703;48.748;19.142;2023-11-21T02:42:53;18.27;;;13.10;;
9328;SDS011;4703;48.748;19.142;2023-11-21T02:45:20;16.87;;;12.17;;
9328;SDS011;4703;48.748;19.142;2023-11-21T02:47:48;15.00;;;11.43;;
9328;SDS011;4703;48.748;19.142;2023-11-21T02:50:16;15.50;;;11.83;;
9328;SDS011;4703;48.748;19.142;2023-11-21T02:52:46;13.80;;;10.30;;
9328;SDS011;4703;48.748;19.142;2023-11-21T02:55:13;15.93;;;10.47;;
9328;SDS011;4703;48.748;19.142;2023-11-21T02:57:41;12.67;;;10.10;;
9328;SDS011;4703;48.748;19.142;2023-11-21T03:00:08;13.70;;;9.50;;
9328;SDS011;4703;48.748;19.142;2023-11-21T03:02:41;11.00;;;9.37;;
9328;SDS011;4703;48.748;19.142;2023-11-21T03:05:08;13.60;;;10.20;;
9328;SDS011;4703;48.748;19.142;2023-11-21T03:07:37;11.33;;;9.47;;
9328;SDS011;4703;48.748;19.142;2023-11-21T03:10:05;13.40;;;11.30;;
9328;SDS011;4703;48.748;19.142;2023-11-21T03:12:35;15.73;;;12.30;;
9328;SDS011;4703;48.748;19.142;2023-11-21T03:15:06;12.47;;;10.90;;
9328;SDS011;4703;48.748;19.142;2023-11-21T03:17:34;12.37;;;10.80;;
9328;SDS011;4703;48.748;19.142;2023-11-21T03:20:02;15.00;;;10.43;;
9328;SDS011;4703;48.748;19.142;2023-11-21T03:22:31;13.97;;;10.90;;
9328;SDS011;4703;48.748;19.142;2023-11-21T03:24:58;14.20;;;10.50;;
9328;SDS011;4703;48.748;19.142;2023-11-21T03:27:25;13.20;;;9.90;;
9328;SDS011;4703;48.748;19.142;2023-11-21T03:29:52;16.30;;;11.77;;
9328;SDS011;4703;48.748;19.142;2023-11-21T03:32:21;13.30;;;11.80;;
9328;SDS011;4703;48.748;19.142;2023-11-21T03:34:55;9.87;;;8.87;;
9328;SDS011;4703;48.748;19.142;2023-11-21T03:37:26;11.47;;;10.17;;
9328;SDS011;4703;48.748;19.142;2023-11-21T03:39:55;15.07;;;10.27;;
9328;SDS011;4703;48.748;19.142;2023-11-21T03:42:23;11.87;;;10.03;;
9328;SDS011;4703;48.748;19.142;2023-11-21T03:44:53;10.93;;;9.20;;
9328;SDS011;4703;48.748;19.142;2023-11-21T03:47:20;12.47;;;9.43;;
9328;SDS011;4703;48.748;19.142;2023-11-21T03:49:47;12.43;;;9.60;;
9328;SDS011;4703;48.748;19.142;2023-11-21T03:52:14;11.83;;;9.67;;
9328;SDS011;4703;48.748;19.142;2023-11-21T03:54:42;10.97;;;8.37;;
9328;SDS011;4703;48.748;19.142;2023-11-21T03:57:10;10.80;;;9.00;;
9328;SDS011;4703;48.748;19.142;2023-11-21T03:59:41;13.73;;;8.90;;
9328;SDS011;4703;48.748;19.142;2023-11-21T04:02:09;12.00;;;8.90;;
9328;SDS011;4703;48.748;19.142;2023-11-21T04:04:36;11.87;;;8.40;;
9328;SDS011;4703;48.748;19.142;2023-11-21T04:07:03;11.47;;;9.43;;
9328;SDS011;4703;48.748;19.142;2023-11-21T04:09:31;12.43;;;8.70;;
9328;SDS011;4703;48.748;19.142;2023-11-21T04:11:58;14.47;;;9.47;;
9328;SDS011;4703;48.748;19.142;2023-11-21T04:14:25;14.70;;;11.20;;
9328;SDS011;4703;48.748;19.142;2023-11-21T04:16:52;13.37;;;11.20;;
9328;SDS011;4703;48.748;19.142;2023-11-21T04:19:20;13.80;;;10.07;;
9328;SDS011;4703;48.748;19.142;2023-11-21T04:21:47;10.33;;;9.23;;
9328;SDS011;4703;48.748;19.142;2023-11-21T04:24:14;13.63;;;10.00;;
9328;SDS011;4703;48.748;19.142;2023-11-21T04:26:42;15.63;;;10.50;;
9328;SDS011;4703;48.748;19.142;2023-11-21T04:29:10;11.13;;;8.20;;
9328;SDS011;4703;48.748;19.142;2023-11-21T04:31:37;11.87;;;9.93;;
9328;SDS011;4703;48.748;19.142;2023-11-21T04:34:04;12.30;;;9.63;;
9328;SDS011;4703;48.748;19.142;2023-11-21T04:36:31;11.40;;;9.30;;
9328;SDS011;4703;48.748;19.142;2023-11-21T04:38:58;13.93;;;9.07;;
9328;SDS011;4703;48.748;19.142;2023-11-21T04:41:25;13.90;;;10.07;;
9328;SDS011;4703;48.748;19.142;2023-11-21T04:43:53;10.47;;;8.43;;
9328;SDS011;4703;48.748;19.142;2023-11-21T04:46:20;11.97;;;9.50;;
9328;SDS011;4703;48.748;19.142;2023-11-21T04:48:48;9.70;;;7.63;;
9328;SDS011;4703;48.748;19.142;2023-11-21T04:51:15;11.00;;;8.90;;
9328;SDS011;4703;48.748;19.142;2023-11-21T04:53:43;27.07;;;16.97;;
9328;SDS011;4703;48.748;19.142;2023-11-21T04:56:10;14.07;;;11.50;;
9328;SDS011;4703;48.748;19.142;2023-11-21T04:58:37;14.60;;;10.33;;
9328;SDS011;4703;48.748;19.142;2023-11-21T05:01:07;14.13;;;11.17;;
9328;SDS011;4703;48.748;19.142;2023-11-21T05:03:35;12.20;;;10.90;;
9328;SDS011;4703;48.748;19.142;2023-11-21T05:06:02;10.60;;;9.30;;
9328;SDS011;4703;48.748;19.142;2023-11-21T05:08:31;12.30;;;9.20;;
9328;SDS011;4703;48.748;19.142;2023-11-21T05:10:58;15.67;;;9.40;;
9328;SDS011;4703;48.748;19.142;2023-11-21T05:13:25;16.07;;;11.20;;
9328;SDS011;4703;48.748;19.142;2023-11-21T05:15:54;10.27;;;8.80;;
9328;SDS011;4703;48.748;19.142;2023-11-21T05:18:25;13.53;;;8.50;;
9328;SDS011;4703;48.748;19.142;2023-11-21T05:20:56;11.30;;;7.77;;
9328;SDS011;4703;48.748;19.142;2023-11-21T05:23:23;8.30;;;7.50;;
9328;SDS011;4703;48.748;19.142;2023-11-21T05:25:51;10.80;;;9.13;;
9328;SDS011;4703;48.748;19.142;2023-11-21T05:28:18;14.00;;;8.00;;
9328;SDS011;4703;48.748;19.142;2023-11-21T05:30:45;9.60;;;8.57;;
9328;SDS011;4703;48.748;19.142;2023-11-21T05:33:12;12.80;;;8.50;;
9328;SDS011;4703;48.748;19.142;2023-11-21T05:35:39;30.00;;;23.57;;
9328;SDS011;4703;48.748;19.142;2023-11-21T05:38:06;8.07;;;6.70;;
9328;SDS011;4703;48.748;19.142;2023-11-21T05:40:33;9.00;;;7.50;;
9328;SDS011;4703;48.748;19.142;2023-11-21T05:43:00;8.63;;;7.63;;
9328;SDS011;4703;48.748;19.142;2023-11-21T05:45:27;12.07;;;9.00;;
9328;SDS011;4703;48.748;19.142;2023-11-21T05:47:55;11.63;;;8.03;;
9328;SDS011;4703;48.748;19.142;2023-11-21T05:50:22;13.13;;;7.50;;
9328;SDS011;4703;48.748;19.142;2023-11-21T05:52:49;8.90;;;8.00;;
9328;SDS011;4703;48.748;19.142;2023-11-21T05:55:17;13.27;;;9.13;;
9328;SDS011;4703;48.748;19.142;2023-11-21T05:57:44;9.10;;;7.27;;
9328;SDS011;4703;48.748;19.142;2023-11-21T06:00:12;9.80;;;8.30;;
9328;SDS011;4703;48.748;19.142;2023-11-21T06:02:48;15.73;;;8.17;;
9328;SDS011;4703;48.748;19.142;2023-11-21T06:05:20;21.20;;;13.13;;
9328;SDS011;4703;48.748;19.142;2023-11-21T06:07:50;18.13;;;12.20;;
9328;SDS011;4703;48.748;19.142;2023-11-21T06:10:22;13.07;;;9.77;;
9328;SDS011;4703;48.748;19.142;2023-11-21T06:12:51;12.47;;;9.87;;
9328;SDS011;4703;48.748;19.142;2023-11-21T06:15:19;14.67;;;11.17;;
9328;SDS011;4703;48.748;19.142;2023-11-21T06:17:47;20.47;;;12.77;;
9328;SDS011;4703;48.748;19.142;2023-11-21T06:20:21;18.10;;;11.93;;
9328;SDS011;4703;48.748;19.142;2023-11-21T06:22:49;13.40;;;11.00;;
9328;SDS011;4703;48.748;19.142;2023-11-21T06:25:18;20.57;;;15.53;;
9328;SDS011;4703;48.748;19.142;2023-11-21T06:27:46;18.13;;;11.80;;
9328;SDS011;4703;48.748;19.142;2023-11-21T06:30:14;20.40;;;15.47;;
9328;SDS011;4703;48.748;19.142;2023-11-21T06:32:42;28.00;;;21.77;;
9328;SDS011;4703;48.748;19.142;2023-11-21T06:35:13;26.10;;;18.03;;
9328;SDS011;4703;48.748;19.142;2023-11-21T06:37:43;25.60;;;13.70;;
9328;SDS011;4703;48.748;19.142;2023-11-21T06:40:15;19.33;;;12.60;;
9328;SDS011;4703;48.748;19.142;2023-11-21T06:42:44;17.50;;;12.60;;
9328;SDS011;4703;48.748;19.142;2023-11-21T06:45:13;14.97;;;10.50;;
9328;SDS011;4703;48.748;19.142;2023-11-21T06:47:41;14.30;;;10.20;;
9328;SDS011;4703;48.748;19.142;2023-11-21T06:50:09;16.60;;;11.63;;
9328;SDS011;4703;48.748;19.142;2023-11-21T06:52:36;16.30;;;11.43;;
9328;SDS011;4703;48.748;19.142;2023-11-21T06:55:03;16.90;;;11.50;;
9328;SDS011;4703;48.748;19.142;2023-11-21T06:57:31;16.87;;;11.00;;
9328;SDS011;4703;48.748;19.142;2023-11-21T06:59:58;17.27;;;11.90;;
9328;SDS011;4703;48.748;19.142;2023-11-21T07:02:25;19.80;;;11.73;;
9328;SDS011;4703;48.748;19.142;2023-11-21T07:04:53;16.10;;;10.70;;
9328;SDS011;4703;48.748;19.142;2023-11-21T07:07:20;16.47;;;12.67;;
9328;SDS011;4703;48.748;19.142;2023-11-21T07:09:47;13.90;;;10.83;;
9328;SDS011;4703;48.748;19.142;2023-11-21T07:12:15;12.20;;;10.40;;
9328;SDS011;4703;48.748;19.142;2023-11-21T07:14:42;18.10;;;11.87;;
9328;SDS011;4703;48.748;19.142;2023-11-21T07:17:11;14.73;;;10.40;;
9328;SDS011;4703;48.748;19.142;2023-11-21T07:19:38;11.53;;;10.40;;
9328;SDS011;4703;48.748;19.142;2023-11-21T07:22:05;14.30;;;12.00;;
9328;SDS011;4703;48.748;19.142;2023-11-21T07:24:33;17.57;;;11.30;;
9328;SDS011;4703;48.748;19.142;2023-11-21T07:27:00;16.80;;;12.87;;
9328;SDS011;4703;48.748;19.142;2023-11-21T07:29:27;17.80;;;11.27;;
9328;SDS011;4703;48.748;19.142;2023-11-21T07:31:56;67.23;;;38.93;;
9328;SDS011;4703;48.748;19.142;2023-11-21T07:34:23;45.60;;;27.43;;
9328;SDS011;4703;48.748;19.142;2023-11-21T07:36:50;23.17;;;15.97;;
9328;SDS011;4703;48.748;19.142;2023-11-21T07:39:17;17.80;;;12.67;;
9328;SDS011;4703;48.748;19.142;2023-11-21T07:41:44;15.23;;;11.10;;
9328;SDS011;4703;48.748;19.142;2023-11-21T07:44:15;18.87;;;11.97;;
9328;SDS011;4703;48.748;19.142;2023-11-21T07:46:43;20.30;;;11.33;;
9328;SDS011;4703;48.748;19.142;2023-11-21T07:49:11;15.50;;;13.10;;
9328;SDS011;4703;48.748;19.142;2023-11-21T07:51:43;16.80;;;12.97;;
9328;SDS011;4703;48.748;19.142;2023-11-21T07:54:10;16.97;;;14.07;;
9328;SDS011;4703;48.748;19.142;2023-11-21T07:56:37;29.20;;;16.27;;
9328;SDS011;4703;48.748;19.142;2023-11-21T07:59:04;26.83;;;16.70;;
9328;SDS011;4703;48.748;19.142;2023-11-21T08:01:32;27.50;;;17.47;;
9328;SDS011;4703;48.748;19.142;2023-11-21T08:03:59;25.53;;;16.40;;
9328;SDS011;4703;48.748;19.142;2023-11-21T08:06:30;22.33;;;17.23;;
9328;SDS011;4703;48.748;19.142;2023-11-21T08:08:57;32.27;;;19.90;;
9328;SDS011;4703;48.748;19.142;2023-11-21T08:11:24;35.37;;;21.70;;
9328;SDS011;4703;48.748;19.142;2023-11-21T08:13:55;25.67;;;17.60;;
9328;SDS011;4703;48.748;19.142;2023-11-21T08:16:23;26.87;;;16.80;;
9328;SDS011;4703;48.748;19.142;2023-11-21T08:18:50;36.00;;;26.30;;
9328;SDS011;4703;48.748;19.142;2023-11-21T08:21:17;51.00;;;35.17;;
9328;SDS011;4703;48.748;19.142;2023-11-21T08:23:45;27.90;;;19.40;;
9328;SDS011;4703;48.748;19.142;2023-11-21T08:26:15;25.30;;;15.60;;
9328;SDS011;4703;48.748;19.142;2023-11-21T08:28:43;20.67;;;14.90;;
9328;SDS011;4703;48.748;19.142;2023-11-21T08:31:10;22.83;;;15.83;;
9328;SDS011;4703;48.748;19.142;2023-11-21T08:33:39;33.20;;;21.23;;
9328;SDS011;4703;48.748;19.142;2023-11-21T08:36:07;23.57;;;15.20;;
9328;SDS011;4703;48.748;19.142;2023-11-21T08:38:35;20.97;;;13.30;;
9328;SDS011;4703;48.748;19.142;2023-11-21T08:41:05;17.70;;;13.70;;
9328;SDS011;4703;48.748;19.142;2023-11-21T08:43:34;15.50;;;12.67;;
9328;SDS011;4703;48.748;19.142;2023-11-21T08:46:06;15.73;;;12.30;;
9328;SDS011;4703;48.748;19.142;2023-11-21T08:48:35;17.70;;;11.73;;
9328;SDS011;4703;48.748;19.142;2023-11-21T08:51:03;17.60;;;12.80;;
9328;SDS011;4703;48.748;19.142;2023-11-21T08:53:31;18.27;;;11.63;;
9328;SDS011;4703;48.748;19.142;2023-11-21T08:55:59;28.47;;;20.80;;
9328;SDS011;4703;48.748;19.142;2023-11-21T08:58:26;22.90;;;17.40;;
9328;SDS011;4703;48.748;19.142;2023-11-21T09:00:53;21.80;;;16.07;;
9328;SDS011;4703;48.748;19.142;2023-11-21T09:03:20;21.23;;;16.37;;
9328;SDS011;4703;48.748;19.142;2023-11-21T09:05:48;15.57;;;12.03;;
9328;SDS011;4703;48.748;19.142;2023-11-21T09:08:15;14.30;;;11.70;;
9328;SDS011;4703;48.748;19.142;2023-11-21T09:10:43;11.20;;;10.07;;
9328;SDS011;4703;48.748;19.142;2023-11-21T09:13:13;13.50;;;10.73;;
9328;SDS011;4703;48.748;19.142;2023-11-21T09:15:43;11.00;;;9.90;;
9328;SDS011;4703;48.748;19.142;2023-11-21T09:18:15;14.33;;;11.03;;
9328;SDS011;4703;48.748;19.142;2023-11-21T09:20:42;14.97;;;10.10;;
9328;SDS011;4703;48.748;19.142;2023-11-21T09:23:10;11.43;;;10.20;;
9328;SDS011;4703;48.748;19.142;2023-11-21T09:25:37;10.47;;;9.47;;
9328;SDS011;4703;48.748;19.142;2023-11-21T09:28:05;11.47;;;9.70;;
9328;SDS011;4703;48.748;19.142;2023-11-21T09:30:35;10.90;;;9.83;;
9328;SDS011;4703;48.748;19.142;2023-11-21T09:33:03;12.37;;;10.73;;
9328;SDS011;4703;48.748;19.142;2023-11-21T09:35:34;10.50;;;9.40;;
9328;SDS011;4703;48.748;19.142;2023-11-21T09:38:01;12.70;;;11.33;;
9328;SDS011;4703;48.748;19.142;2023-11-21T09:40:32;14.60;;;13.10;;
9328;SDS011;4703;48.748;19.142;2023-11-21T09:42:59;21.83;;;17.13;;
9328;SDS011;4703;48.748;19.142;2023-11-21T09:45:29;13.93;;;12.37;;
9328;SDS011;4703;48.748;19.142;2023-11-21T09:48:01;12.10;;;10.20;;
9328;SDS011;4703;48.748;19.142;2023-11-21T09:50:29;11.60;;;9.47;;
9328;SDS011;4703;48.748;19.142;2023-11-21T09:55:47;11.83;;;9.80;;
9328;SDS011;4703;48.748;19.142;2023-11-21T09:58:18;10.50;;;9.50;;
9328;SDS011;4703;48.748;19.142;2023-11-21T10:00:46;12.93;;;10.53;;
9328;SDS011;4703;48.748;19.142;2023-11-21T10:03:15;28.03;;;23.73;;
9328;SDS011;4703;48.748;19.142;2023-11-21T10:05:43;23.93;;;19.07;;
9328;SDS011;4703;48.748;19.142;2023-11-21T10:08:14;15.17;;;12.10;;
9328;SDS011;4703;48.748;19.142;2023-11-21T10:10:45;12.90;;;11.60;;
9328;SDS011;4703;48.748;19.142;2023-11-21T10:13:15;17.10;;;12.90;;
9328;SDS011;4703;48.748;19.142;2023-11-21T10:15:44;14.97;;;13.10;;
9328;SDS011;4703;48.748;19.142;2023-11-21T10:18:17;13.40;;;11.60;;
9328;SDS011;4703;48.748;19.142;2023-11-21T10:20:45;13.63;;;11.60;;
9328;SDS011;4703;48.748;19.142;2023-11-21T10:23:20;15.70;;;11.37;;
9328;SDS011;4703;48.748;19.142;2023-11-21T10:25:50;11.73;;;10.10;;
9328;SDS011;4703;48.748;19.142;2023-11-21T10:28:19;14.30;;;10.07;;
9328;SDS011;4703;48.748;19.142;2023-11-21T10:30:47;44.70;;;30.50;;
9328;SDS011;4703;48.748;19.142;2023-11-21T10:33:15;36.07;;;25.17;;
9328;SDS011;4703;48.748;19.142;2023-11-21T10:38:17;12.50;;;11.10;;
9328;SDS011;4703;48.748;19.142;2023-11-21T10:40:47;11.30;;;9.67;;
9328;SDS011;4703;48.748;19.142;2023-11-21T10:43:15;11.50;;;9.63;;
9328;SDS011;4703;48.748;19.142;2023-11-21T10:45:44;16.67;;;9.40;;
9328;SDS011;4703;48.748;19.142;2023-11-21T10:48:15;10.30;;;9.27;;
9328;SDS011;4703;48.748;19.142;2023-11-21T10:50:43;9.80;;;8.80;;
9328;SDS011;4703;48.748;19.142;2023-11-21T10:53:13;10.40;;;9.30;;
9328;SDS011;4703;48.748;19.142;2023-11-21T10:55:41;22.10;;;16.97;;
9328;SDS011;4703;48.748;19.142;2023-11-21T10:58:11;21.30;;;15.90;;
9328;SDS011;4703;48.748;19.142;2023-11-21T11:00:40;14.63;;;12.07;;
9328;SDS011;4703;48.748;19.142;2023-11-21T11:03:09;9.90;;;8.90;;
9328;SDS011;4703;48.748;19.142;2023-11-21T11:05:43;12.17;;;9.07;;
9328;SDS011;4703;48.748;19.142;2023-11-21T11:08:21;9.57;;;8.67;;
9328;SDS011;4703;48.748;19.142;2023-11-21T11:10:54;56.70;;;38.37;;
9328;SDS011;4703;48.748;19.142;2023-11-21T11:13:22;81.63;;;49.63;;
9328;SDS011;4703;48.748;19.142;2023-11-21T11:15:49;12.47;;;11.20;;
9328;SDS011;4703;48.748;19.142;2023-11-21T11:18:16;9.70;;;8.73;;
9328;SDS011;4703;48.748;19.142;2023-11-21T11:20:45;10.73;;;8.77;;
9328;SDS011;4703;48.748;19.142;2023-11-21T11:26:31;8.23;;;7.37;;
9328;SDS011;4703;48.748;19.142;2023-11-21T11:32:33;10.43;;;8.23;;
9328;SDS011;4703;48.748;19.142;2023-11-21T11:35:24;8.17;;;7.43;;
9328;SDS011;4703;48.748;19.142;2023-11-21T11:38:01;5.33;;;4.83;;
9328;SDS011;4703;48.748;19.142;2023-11-21T11:40:40;4.43;;;4.00;;
9328;SDS011;4703;48.748;19.142;2023-11-21T11:43:12;4.53;;;3.67;;
9328;SDS011;4703;48.748;19.142;2023-11-21T11:45:39;3.10;;;2.80;;
9328;SDS011;4703;48.748;19.142;2023-11-21T11:48:10;3.20;;;2.90;;
9328;SDS011;4703;48.748;19.142;2023-11-21T11:53:38;2.17;;;2.07;;
9328;SDS011;4703;48.748;19.142;2023-11-21T11:56:28;2.40;;;2.20;;
9328;SDS011;4703;48.748;19.142;2023-11-21T11:59:02;1.90;;;1.80;;
9328;SDS011;4703;48.748;19.142;2023-11-21T12:01:31;7.33;;;3.00;;
9328;SDS011;4703;48.748;19.142;2023-11-21T12:06:59;2.23;;;2.13;;
9328;SDS011;4703;48.748;19.142;2023-11-21T12:09:29;2.60;;;2.20;;
9328;SDS011;4703;48.748;19.142;2023-11-21T12:11:58;3.27;;;2.30;;
9328;SDS011;4703;48.748;19.142;2023-11-21T12:14:26;48.90;;;32.60;;
9328;SDS011;4703;48.748;19.142;2023-11-21T12:16:54;8.50;;;6.80;;
9328;SDS011;4703;48.748;19.142;2023-11-21T12:19:21;1.80;;;1.70;;
9328;SDS011;4703;48.748;19.142;2023-11-21T12:21:48;2.20;;;2.10;;
9328;SDS011;4703;48.748;19.142;2023-11-21T12:24:16;4.30;;;2.57;;
9328;SDS011;4703;48.748;19.142;2023-11-21T12:26:43;2.47;;;2.00;;
9328;SDS011;4703;48.748;19.142;2023-11-21T12:29:10;1.47;;;1.37;;
9328;SDS011;4703;48.748;19.142;2023-11-21T12:31:37;2.03;;;1.90;;
9328;SDS011;4703;48.748;19.142;2023-11-21T12:34:06;1.80;;;1.70;;
9328;SDS011;4703;48.748;19.142;2023-11-21T12:36:35;2.30;;;2.00;;
9328;SDS011;4703;48.748;19.142;2023-11-21T12:39:02;2.03;;;1.63;;
9328;SDS011;4703;48.748;19.142;2023-11-21T12:41:29;1.70;;;1.60;;
9328;SDS011;4703;48.748;19.142;2023-11-21T12:43:57;2.00;;;1.90;;
9328;SDS011;4703;48.748;19.142;2023-11-21T12:46:24;1.73;;;1.63;;
9328;SDS011;4703;48.748;19.142;2023-11-21T12:48:55;1.80;;;1.70;;
9328;SDS011;4703;48.748;19.142;2023-11-21T12:51:24;1.50;;;1.40;;
9328;SDS011;4703;48.748;19.142;2023-11-21T12:53:51;1.10;;;1.10;;
9328;SDS011;4703;48.748;19.142;2023-11-21T12:56:21;1.60;;;1.50;;
9328;SDS011;4703;48.748;19.142;2023-11-21T12:58:53;1.40;;;1.30;;
9328;SDS011;4703;48.748;19.142;2023-11-21T13:01:25;1.73;;;1.63;;
9328;SDS011;4703;48.748;19.142;2023-11-21T13:03:55;1.13;;;1.10;;
9328;SDS011;4703;48.748;19.142;2023-11-21T13:06:24;1.40;;;1.37;;
9328;SDS011;4703;48.748;19.142;2023-11-21T13:08:53;1.60;;;1.50;;
9328;SDS011;4703;48.748;19.142;2023-11-21T13:11:23;1.53;;;1.43;;
9328;SDS011;4703;48.748;19.142;2023-11-21T13:13:52;1.40;;;1.23;;
9328;SDS011;4703;48.748;19.142;2023-11-21T13:16:20;1.73;;;1.63;;
9328;SDS011;4703;48.748;19.142;2023-11-21T13:18:48;1.77;;;1.67;;
9328;SDS011;4703;48.748;19.142;2023-11-21T13:21:15;1.80;;;1.70;;
9328;SDS011;4703;48.748;19.142;2023-11-21T13:23:43;1.97;;;1.87;;
9328;SDS011;4703;48.748;19.142;2023-11-21T13:26:12;2.37;;;2.20;;
9328;SDS011;4703;48.748;19.142;2023-11-21T13:28:41;3.27;;;3.00;;
9328;SDS011;4703;48.748;19.142;2023-11-21T13:31:13;2.00;;;1.80;;
9328;SDS011;4703;48.748;19.142;2023-11-21T13:33:53;1.97;;;1.87;;
9328;SDS011;4703;48.748;19.142;2023-11-21T13:36:30;1.67;;;1.60;;
9328;SDS011;4703;48.748;19.142;2023-11-21T13:39:01;5.93;;;2.10;;
9328;SDS011;4703;48.748;19.142;2023-11-21T13:41:37;2.47;;;1.93;;
9328;SDS011;4703;48.748;19.142;2023-11-21T13:44:05;1.67;;;1.57;;
9328;SDS011;4703;48.748;19.142;2023-11-21T13:46:45;2.00;;;1.90;;
9328;SDS011;4703;48.748;19.142;2023-11-21T13:49:13;2.33;;;2.17;;
9328;SDS011;4703;48.748;19.142;2023-11-21T13:51:41;2.20;;;1.50;;
9328;SDS011;4703;48.748;19.142;2023-11-21T13:54:11;1.53;;;1.50;;
9328;SDS011;4703;48.748;19.142;2023-11-21T13:56:38;2.57;;;2.37;;
9328;SDS011;4703;48.748;19.142;2023-11-21T13:59:07;2.60;;;2.27;;
9328;SDS011;4703;48.748;19.142;2023-11-21T14:02:06;4.27;;;3.10;;
9328;SDS011;4703;48.748;19.142;2023-11-21T14:04:46;7.50;;;4.23;;
9328;SDS011;4703;48.748;19.142;2023-11-21T14:07:24;6.40;;;4.33;;
9328;SDS011;4703;48.748;19.142;2023-11-21T14:10:04;4.57;;;4.17;;
9328;SDS011;4703;48.748;19.142;2023-11-21T14:12:36;7.83;;;5.13;;
9328;SDS011;4703;48.748;19.142;2023-11-21T14:15:05;5.13;;;4.63;;
9328;SDS011;4703;48.748;19.142;2023-11-21T14:17:36;7.87;;;5.77;;
9328;SDS011;4703;48.748;19.142;2023-11-21T14:20:06;8.43;;;6.47;;
9328;SDS011;4703;48.748;19.142;2023-11-21T14:22:40;7.13;;;6.30;;
9328;SDS011;4703;48.748;19.142;2023-11-21T14:25:08;6.73;;;6.03;;
9328;SDS011;4703;48.748;19.142;2023-11-21T14:27:37;12.33;;;10.40;;
9328;SDS011;4703;48.748;19.142;2023-11-21T14:30:05;13.80;;;11.97;;
9328;SDS011;4703;48.748;19.142;2023-11-21T14:32:33;14.60;;;12.50;;
9328;SDS011;4703;48.748;19.142;2023-11-21T14:35:01;14.20;;;11.83;;
9328;SDS011;4703;48.748;19.142;2023-11-21T14:37:29;17.60;;;13.43;;
9328;SDS011;4703;48.748;19.142;2023-11-21T14:39:57;13.73;;;11.73;;
9328;SDS011;4703;48.748;19.142;2023-11-21T14:42:24;14.50;;;10.70;;
9328;SDS011;4703;48.748;19.142;2023-11-21T14:44:55;18.53;;;13.40;;
9328;SDS011;4703;48.748;19.142;2023-11-21T14:47:26;16.37;;;13.23;;
9328;SDS011;4703;48.748;19.142;2023-11-21T14:49:54;18.37;;;14.87;;
9328;SDS011;4703;48.748;19.142;2023-11-21T14:52:23;15.10;;;13.50;;
9328;SDS011;4703;48.748;19.142;2023-11-21T14:55:04;19.43;;;13.60;;
9328;SDS011;4703;48.748;19.142;2023-11-21T14:57:50;16.87;;;13.57;;
9328;SDS011;4703;48.748;19.142;2023-11-21T15:00:18;14.40;;;12.37;;
9328;SDS011;4703;48.748;19.142;2023-11-21T15:03:02;14.00;;;12.00;;
9328;SDS011;4703;48.748;19.142;2023-11-21T15:05:31;13.87;;;10.97;;
9328;SDS011;4703;48.748;19.142;2023-11-21T15:07:58;14.87;;;11.40;;
9328;SDS011;4703;48.748;19.142;2023-11-21T15:10:40;13.73;;;10.73;;